sensor_id;sensor_type;location;lat;lon;timestamp;P1;durP1;ratioP1;P2;durP2;ratioP2
16837;SDS011;19510;54.486;9.046;2023-11-18T08:07:44;7.60;;;4.23;;
16837;SDS011;19510;54.486;9.046;2023-11-18T08:10:10;7.97;;;4.23;;
16837;SDS011;19510;54.486;9.046;2023-11-18T08:12:43;7.13;;;4.00;;
16837;SDS011;19510;54.486;9.046;2023-11-18T08:15:12;7.07;;;4.33;;
16837;SDS011;19510;54.486;9.046;2023-11-18T08:17:44;6.33;;;4.30;;
16837;SDS011;19510;54.486;9.046;2023-11-18T08:20:10;9.63;;;5.17;;
16837;SDS011;19510;54.486;9.046;2023-11-18T08:22:42;11.37;;;6.87;;
16837;SDS011;19510;54.486;9.046;2023-11-18T08:25:11;8.53;;;4.60;;
16837;SDS011;19510;54.486;9.046;2023-11-18T08:27:38;6.93;;;4.00;;
16837;SDS011;19510;54.486;9.046;2023-11-18T08:30:08;7.73;;;4.20;;
16837;SDS011;19510;54.486;9.046;2023-11-18T08:32:41;6.20;;;4.00;;
16837;SDS011;19510;54.486;9.046;2023-11-18T08:35:13;7.10;;;4.23;;
16837;SDS011;19510;54.486;9.046;2023-11-18T08:37:42;6.07;;;3.87;;
16837;SDS011;19510;54.486;9.046;2023-11-18T08:40:09;7.23;;;4.27;;
16837;SDS011;19510;54.486;9.046;2023-11-18T08:42:42;6.73;;;4.13;;
16837;SDS011;19510;54.486;9.046;2023-11-18T08:47:47;5.67;;;3.40;;
16837;SDS011;19510;54.486;9.046;2023-11-18T08:50:13;5.73;;;3.67;;
16837;SDS011;19510;54.486;9.046;2023-11-18T08:52:43;6.13;;;3.77;;
16837;SDS011;19510;54.486;9.046;2023-11-18T08:55:15;9.17;;;4.07;;
16837;SDS011;19510;54.486;9.046;2023-11-18T08:57:50;6.53;;;4.20;;
16837;SDS011;19510;54.486;9.046;2023-11-18T09:00:29;7.03;;;4.23;;
16837;SDS011;19510;54.486;9.046;2023-11-18T09:03:14;7.20;;;4.63;;
16837;SDS011;19510;54.486;9.046;2023-11-18T09:08:51;6.77;;;4.37;;
16837;SDS011;19510;54.486;9.046;2023-11-18T09:11:20;8.53;;;5.37;;
16837;SDS011;19510;54.486;9.046;2023-11-18T09:17:08;9.27;;;5.07;;
16837;SDS011;19510;54.486;9.046;2023-11-18T09:19:34;11.00;;;6.03;;
16837;SDS011;19510;54.486;9.046;2023-11-18T09:22:00;9.97;;;5.67;;
16837;SDS011;19510;54.486;9.046;2023-11-18T09:24:41;10.50;;;5.50;;
16837;SDS011;19510;54.486;9.046;2023-11-18T09:27:07;9.13;;;5.00;;
16837;SDS011;19510;54.486;9.046;2023-11-18T09:29:34;9.77;;;5.10;;
16837;SDS011;19510;54.486;9.046;2023-11-18T09:32:00;9.60;;;5.87;;
16837;SDS011;19510;54.486;9.046;2023-11-18T09:34:30;11.20;;;6.47;;
16837;SDS011;19510;54.486;9.046;2023-11-18T09:36:58;10.07;;;5.97;;
16837;SDS011;19510;54.486;9.046;2023-11-18T09:39:23;11.70;;;5.20;;
16837;SDS011;19510;54.486;9.046;2023-11-18T09:41:56;9.17;;;6.13;;
16837;SDS011;19510;54.486;9.046;2023-11-18T09:44:23;10.77;;;6.47;;
16837;SDS011;19510;54.486;9.046;2023-11-18T09:46:53;10.77;;;5.67;;
16837;SDS011;19510;54.486;9.046;2023-11-18T09:49:34;9.63;;;5.90;;
16837;SDS011;19510;54.486;9.046;2023-11-18T09:52:06;11.00;;;6.17;;
16837;SDS011;19510;54.486;9.046;2023-11-18T09:57:32;10.73;;;6.27;;
16837;SDS011;19510;54.486;9.046;2023-11-18T10:02:44;11.97;;;6.30;;
16837;SDS011;19510;54.486;9.046;2023-11-18T10:05:12;15.03;;;7.40;;
16837;SDS011;19510;54.486;9.046;2023-11-18T10:07:42;11.47;;;6.33;;
16837;SDS011;19510;54.486;9.046;2023-11-18T10:10:28;12.00;;;7.13;;
16837;SDS011;19510;54.486;9.046;2023-11-18T10:13:03;11.87;;;6.47;;
16837;SDS011;19510;54.486;9.046;2023-11-18T10:15:46;10.93;;;6.57;;
16837;SDS011;19510;54.486;9.046;2023-11-18T10:18:30;12.60;;;6.67;;
16837;SDS011;19510;54.486;9.046;2023-11-18T10:21:00;13.13;;;6.60;;
16837;SDS011;19510;54.486;9.046;2023-11-18T10:33:07;8.83;;;4.93;;
16837;SDS011;19510;54.486;9.046;2023-11-18T10:35:36;7.73;;;4.67;;
16837;SDS011;19510;54.486;9.046;2023-11-18T10:38:02;8.90;;;5.07;;
16837;SDS011;19510;54.486;9.046;2023-11-18T10:40:33;8.33;;;4.97;;
16837;SDS011;19510;54.486;9.046;2023-11-18T10:43:05;15.40;;;6.13;;
16837;SDS011;19510;54.486;9.046;2023-11-18T10:45:35;10.63;;;5.30;;
16837;SDS011;19510;54.486;9.046;2023-11-18T10:48:07;9.00;;;5.23;;
16837;SDS011;19510;54.486;9.046;2023-11-18T10:50:33;8.83;;;5.20;;
16837;SDS011;19510;54.486;9.046;2023-11-18T10:53:02;9.10;;;5.20;;
16837;SDS011;19510;54.486;9.046;2023-11-18T10:55:37;7.33;;;4.20;;
16837;SDS011;19510;54.486;9.046;2023-11-18T10:58:03;8.23;;;4.00;;
16837;SDS011;19510;54.486;9.046;2023-11-18T11:00:37;9.00;;;4.53;;
16837;SDS011;19510;54.486;9.046;2023-11-18T11:03:14;7.33;;;4.17;;
16837;SDS011;19510;54.486;9.046;2023-11-18T11:05:41;6.57;;;4.33;;
16837;SDS011;19510;54.486;9.046;2023-11-18T11:08:08;8.07;;;4.13;;
16837;SDS011;19510;54.486;9.046;2023-11-18T11:10:39;8.97;;;4.10;;
16837;SDS011;19510;54.486;9.046;2023-11-18T11:13:07;6.97;;;4.20;;
16837;SDS011;19510;54.486;9.046;2023-11-18T11:15:35;6.47;;;3.90;;
16837;SDS011;19510;54.486;9.046;2023-11-18T11:18:08;7.20;;;4.23;;
16837;SDS011;19510;54.486;9.046;2023-11-18T11:20:41;6.63;;;4.13;;
16837;SDS011;19510;54.486;9.046;2023-11-18T11:26:10;7.83;;;3.93;;
16837;SDS011;19510;54.486;9.046;2023-11-18T11:34:04;6.73;;;4.07;;
16837;SDS011;19510;54.486;9.046;2023-11-18T11:36:48;6.97;;;3.53;;
16837;SDS011;19510;54.486;9.046;2023-11-18T11:39:16;5.97;;;3.67;;
16837;SDS011;19510;54.486;9.046;2023-11-18T11:41:50;6.83;;;4.00;;
16837;SDS011;19510;54.486;9.046;2023-11-18T11:44:17;6.20;;;3.47;;
16837;SDS011;19510;54.486;9.046;2023-11-18T11:46:48;6.45;;;4.07;;
16837;SDS011;19510;54.486;9.046;2023-11-18T11:49:19;4.82;;;3.25;;
16837;SDS011;19510;54.486;9.046;2023-11-18T11:51:47;5.33;;;3.27;;
16837;SDS011;19510;54.486;9.046;2023-11-18T11:54:27;5.17;;;3.30;;
16837;SDS011;19510;54.486;9.046;2023-11-18T11:57:01;7.00;;;3.65;;
16837;SDS011;19510;54.486;9.046;2023-11-18T12:02:24;7.32;;;3.40;;
16837;SDS011;19510;54.486;9.046;2023-11-18T12:04:54;4.87;;;2.73;;
16837;SDS011;19510;54.486;9.046;2023-11-18T12:07:24;4.70;;;2.90;;
16837;SDS011;19510;54.486;9.046;2023-11-18T12:09:56;4.50;;;3.07;;
16837;SDS011;19510;54.486;9.046;2023-11-18T12:12:24;5.35;;;3.17;;
16837;SDS011;19510;54.486;9.046;2023-11-18T12:14:56;5.35;;;3.50;;
16837;SDS011;19510;54.486;9.046;2023-11-18T12:17:31;4.95;;;2.85;;
16837;SDS011;19510;54.486;9.046;2023-11-18T12:23:10;3.95;;;2.58;;
16837;SDS011;19510;54.486;9.046;2023-11-18T12:28:16;5.32;;;3.30;;
16837;SDS011;19510;54.486;9.046;2023-11-18T12:30:46;5.37;;;3.07;;
16837;SDS011;19510;54.486;9.046;2023-11-18T12:33:21;4.93;;;3.20;;
16837;SDS011;19510;54.486;9.046;2023-11-18T12:36:19;5.13;;;3.20;;
16837;SDS011;19510;54.486;9.046;2023-11-18T12:41:42;4.43;;;2.88;;
16837;SDS011;19510;54.486;9.046;2023-11-18T12:46:52;5.37;;;3.20;;
16837;SDS011;19510;54.486;9.046;2023-11-18T12:49:20;4.90;;;3.00;;
16837;SDS011;19510;54.486;9.046;2023-11-18T12:51:53;6.37;;;3.20;;
16837;SDS011;19510;54.486;9.046;2023-11-18T12:54:21;4.27;;;2.67;;
16837;SDS011;19510;54.486;9.046;2023-11-18T12:56:50;6.05;;;3.05;;
16837;SDS011;19510;54.486;9.046;2023-11-18T12:59:19;5.17;;;3.00;;
16837;SDS011;19510;54.486;9.046;2023-11-18T13:01:49;4.43;;;2.95;;
16837;SDS011;19510;54.486;9.046;2023-11-18T13:04:27;4.93;;;3.00;;
16837;SDS011;19510;54.486;9.046;2023-11-18T13:06:53;5.22;;;2.90;;
16837;SDS011;19510;54.486;9.046;2023-11-18T13:09:19;5.65;;;3.05;;
16837;SDS011;19510;54.486;9.046;2023-11-18T13:12:01;5.53;;;3.30;;
16837;SDS011;19510;54.486;9.046;2023-11-18T13:14:30;3.83;;;2.90;;
16837;SDS011;19510;54.486;9.046;2023-11-18T13:17:11;7.07;;;3.38;;
16837;SDS011;19510;54.486;9.046;2023-11-18T13:19:38;4.72;;;3.13;;
16837;SDS011;19510;54.486;9.046;2023-11-18T13:22:05;4.22;;;3.00;;
16837;SDS011;19510;54.486;9.046;2023-11-18T13:24:39;6.38;;;3.20;;
16837;SDS011;19510;54.486;9.046;2023-11-18T13:27:06;4.25;;;2.70;;
16837;SDS011;19510;54.486;9.046;2023-11-18T13:29:35;5.30;;;3.30;;
16837;SDS011;19510;54.486;9.046;2023-11-18T13:32:01;4.57;;;2.75;;
16837;SDS011;19510;54.486;9.046;2023-11-18T13:34:29;4.03;;;2.88;;
16837;SDS011;19510;54.486;9.046;2023-11-18T13:36:58;5.95;;;2.95;;
16837;SDS011;19510;54.486;9.046;2023-11-18T13:39:24;4.78;;;3.10;;
16837;SDS011;19510;54.486;9.046;2023-11-18T13:41:52;3.25;;;2.63;;
16837;SDS011;19510;54.486;9.046;2023-11-18T13:47:18;4.97;;;2.65;;
16837;SDS011;19510;54.486;9.046;2023-11-18T13:49:44;6.35;;;4.07;;
16837;SDS011;19510;54.486;9.046;2023-11-18T13:52:12;3.13;;;2.42;;
16837;SDS011;19510;54.486;9.046;2023-11-18T13:54:41;4.50;;;3.40;;
16837;SDS011;19510;54.486;9.046;2023-11-18T13:57:09;4.95;;;3.10;;
16837;SDS011;19510;54.486;9.046;2023-11-18T13:59:36;5.17;;;3.30;;
16837;SDS011;19510;54.486;9.046;2023-11-18T14:02:03;6.28;;;3.00;;
16837;SDS011;19510;54.486;9.046;2023-11-18T14:04:30;3.63;;;2.83;;
16837;SDS011;19510;54.486;9.046;2023-11-18T14:06:59;5.72;;;3.03;;
16837;SDS011;19510;54.486;9.046;2023-11-18T14:09:29;5.27;;;3.30;;
16837;SDS011;19510;54.486;9.046;2023-11-18T14:11:58;4.03;;;2.60;;
16837;SDS011;19510;54.486;9.046;2023-11-18T14:14:23;6.43;;;3.37;;
16837;SDS011;19510;54.486;9.046;2023-11-18T14:16:52;7.73;;;3.70;;
16837;SDS011;19510;54.486;9.046;2023-11-18T14:19:19;6.83;;;3.00;;
16837;SDS011;19510;54.486;9.046;2023-11-18T14:21:45;5.80;;;3.17;;
16837;SDS011;19510;54.486;9.046;2023-11-18T14:24:11;6.10;;;3.80;;
16837;SDS011;19510;54.486;9.046;2023-11-18T14:26:39;6.77;;;3.80;;
16837;SDS011;19510;54.486;9.046;2023-11-18T14:29:06;5.17;;;3.13;;
16837;SDS011;19510;54.486;9.046;2023-11-18T14:31:35;6.00;;;3.50;;
16837;SDS011;19510;54.486;9.046;2023-11-18T14:34:01;6.43;;;3.43;;
16837;SDS011;19510;54.486;9.046;2023-11-18T14:36:27;6.30;;;3.60;;
16837;SDS011;19510;54.486;9.046;2023-11-18T14:38:53;7.57;;;4.30;;
16837;SDS011;19510;54.486;9.046;2023-11-18T14:41:19;6.97;;;3.60;;
16837;SDS011;19510;54.486;9.046;2023-11-18T14:43:49;6.20;;;3.80;;
16837;SDS011;19510;54.486;9.046;2023-11-18T14:46:16;5.43;;;3.53;;
16837;SDS011;19510;54.486;9.046;2023-11-18T14:48:41;5.93;;;3.87;;
16837;SDS011;19510;54.486;9.046;2023-11-18T14:51:10;6.23;;;4.13;;
16837;SDS011;19510;54.486;9.046;2023-11-18T14:53:36;6.70;;;3.90;;
16837;SDS011;19510;54.486;9.046;2023-11-18T14:56:05;5.40;;;3.37;;
16837;SDS011;19510;54.486;9.046;2023-11-18T14:58:31;7.07;;;3.70;;
16837;SDS011;19510;54.486;9.046;2023-11-18T15:00:58;6.90;;;4.20;;
16837;SDS011;19510;54.486;9.046;2023-11-18T15:03:25;9.00;;;4.53;;
16837;SDS011;19510;54.486;9.046;2023-11-18T15:05:51;5.40;;;3.50;;
16837;SDS011;19510;54.486;9.046;2023-11-18T15:08:16;6.77;;;3.27;;
16837;SDS011;19510;54.486;9.046;2023-11-18T15:10:42;7.90;;;3.50;;
16837;SDS011;19510;54.486;9.046;2023-11-18T15:13:09;4.90;;;3.50;;
16837;SDS011;19510;54.486;9.046;2023-11-18T15:15:41;7.20;;;3.20;;
16837;SDS011;19510;54.486;9.046;2023-11-18T15:18:08;5.50;;;3.77;;
16837;SDS011;19510;54.486;9.046;2023-11-18T15:20:35;7.87;;;3.80;;
16837;SDS011;19510;54.486;9.046;2023-11-18T15:23:01;6.77;;;3.87;;
16837;SDS011;19510;54.486;9.046;2023-11-18T15:25:27;6.17;;;3.43;;
16837;SDS011;19510;54.486;9.046;2023-11-18T15:27:53;6.57;;;3.60;;
16837;SDS011;19510;54.486;9.046;2023-11-18T15:30:24;5.53;;;3.43;;
16837;SDS011;19510;54.486;9.046;2023-11-18T16:17:59;5.43;;;3.47;;
16837;SDS011;19510;54.486;9.046;2023-11-18T16:20:26;5.40;;;3.47;;
16837;SDS011;19510;54.486;9.046;2023-11-18T16:22:53;6.93;;;4.07;;
16837;SDS011;19510;54.486;9.046;2023-11-18T16:25:23;6.90;;;4.00;;
16837;SDS011;19510;54.486;9.046;2023-11-18T16:27:52;5.27;;;3.60;;
16837;SDS011;19510;54.486;9.046;2023-11-18T16:30:19;8.07;;;4.57;;
16837;SDS011;19510;54.486;9.046;2023-11-18T16:32:54;7.07;;;4.43;;
16837;SDS011;19510;54.486;9.046;2023-11-18T16:35:21;6.50;;;4.07;;
16837;SDS011;19510;54.486;9.046;2023-11-18T16:37:47;5.53;;;3.47;;
16837;SDS011;19510;54.486;9.046;2023-11-18T16:40:15;8.67;;;3.80;;
16837;SDS011;19510;54.486;9.046;2023-11-18T16:42:45;6.57;;;3.77;;
16837;SDS011;19510;54.486;9.046;2023-11-18T16:45:15;7.87;;;4.07;;
16837;SDS011;19510;54.486;9.046;2023-11-18T16:47:44;6.97;;;3.53;;
16837;SDS011;19510;54.486;9.046;2023-11-18T16:50:15;4.63;;;3.43;;
16837;SDS011;19510;54.486;9.046;2023-11-18T16:52:42;6.03;;;3.57;;
16837;SDS011;19510;54.486;9.046;2023-11-18T16:55:10;6.87;;;4.03;;
16837;SDS011;19510;54.486;9.046;2023-11-18T16:57:37;6.83;;;4.23;;
16837;SDS011;19510;54.486;9.046;2023-11-18T17:00:06;6.17;;;4.03;;
16837;SDS011;19510;54.486;9.046;2023-11-18T17:02:54;6.70;;;4.30;;
16837;SDS011;19510;54.486;9.046;2023-11-18T17:05:23;8.83;;;4.70;;
16837;SDS011;19510;54.486;9.046;2023-11-18T17:07:49;7.30;;;4.30;;
16837;SDS011;19510;54.486;9.046;2023-11-18T17:10:15;7.10;;;4.43;;
16837;SDS011;19510;54.486;9.046;2023-11-18T17:12:42;7.17;;;4.60;;
16837;SDS011;19510;54.486;9.046;2023-11-18T17:15:10;7.23;;;4.40;;
16837;SDS011;19510;54.486;9.046;2023-11-18T17:17:40;8.97;;;4.73;;
16837;SDS011;19510;54.486;9.046;2023-11-18T17:20:09;9.23;;;4.93;;
16837;SDS011;19510;54.486;9.046;2023-11-18T17:22:37;9.43;;;5.17;;
16837;SDS011;19510;54.486;9.046;2023-11-18T17:25:08;7.13;;;4.97;;
16837;SDS011;19510;54.486;9.046;2023-11-18T17:27:35;6.00;;;4.03;;
16837;SDS011;19510;54.486;9.046;2023-11-18T17:30:04;9.93;;;4.83;;
16837;SDS011;19510;54.486;9.046;2023-11-18T17:32:31;7.67;;;4.77;;
16837;SDS011;19510;54.486;9.046;2023-11-18T17:34:59;8.20;;;4.97;;
16837;SDS011;19510;54.486;9.046;2023-11-18T17:37:25;10.33;;;5.40;;
16837;SDS011;19510;54.486;9.046;2023-11-18T17:39:51;10.60;;;5.40;;
16837;SDS011;19510;54.486;9.046;2023-11-18T17:42:18;8.40;;;5.00;;
16837;SDS011;19510;54.486;9.046;2023-11-18T17:44:44;9.70;;;5.83;;
16837;SDS011;19510;54.486;9.046;2023-11-18T17:47:10;11.30;;;6.13;;
16837;SDS011;19510;54.486;9.046;2023-11-18T17:49:36;9.47;;;5.30;;
16837;SDS011;19510;54.486;9.046;2023-11-18T17:52:01;12.03;;;6.13;;
16837;SDS011;19510;54.486;9.046;2023-11-18T17:54:28;8.97;;;5.57;;
16837;SDS011;19510;54.486;9.046;2023-11-18T17:56:54;10.63;;;5.70;;
16837;SDS011;19510;54.486;9.046;2023-11-18T18:09:49;9.80;;;5.93;;
16837;SDS011;19510;54.486;9.046;2023-11-18T18:12:14;11.77;;;6.17;;
16837;SDS011;19510;54.486;9.046;2023-11-18T18:14:40;10.70;;;5.80;;
16837;SDS011;19510;54.486;9.046;2023-11-18T18:17:06;12.73;;;6.03;;
16837;SDS011;19510;54.486;9.046;2023-11-18T18:19:36;10.90;;;5.90;;
16837;SDS011;19510;54.486;9.046;2023-11-18T18:22:02;11.20;;;6.27;;
16837;SDS011;19510;54.486;9.046;2023-11-18T18:24:28;12.07;;;6.13;;
16837;SDS011;19510;54.486;9.046;2023-11-18T18:26:54;10.70;;;6.27;;
16837;SDS011;19510;54.486;9.046;2023-11-18T18:29:20;10.00;;;6.03;;
16837;SDS011;19510;54.486;9.046;2023-11-18T18:31:48;9.10;;;6.10;;
16837;SDS011;19510;54.486;9.046;2023-11-18T18:34:14;10.00;;;5.80;;
16837;SDS011;19510;54.486;9.046;2023-11-18T18:36:39;12.43;;;6.50;;
16837;SDS011;19510;54.486;9.046;2023-11-18T18:39:05;14.27;;;6.80;;
16837;SDS011;19510;54.486;9.046;2023-11-18T18:41:31;12.63;;;6.70;;
16837;SDS011;19510;54.486;9.046;2023-11-18T18:43:57;11.00;;;6.13;;
16837;SDS011;19510;54.486;9.046;2023-11-18T18:46:23;12.03;;;5.77;;
16837;SDS011;19510;54.486;9.046;2023-11-18T18:48:50;15.47;;;6.70;;
16837;SDS011;19510;54.486;9.046;2023-11-18T18:51:16;11.43;;;5.93;;
16837;SDS011;19510;54.486;9.046;2023-11-18T18:53:42;12.60;;;6.70;;
16837;SDS011;19510;54.486;9.046;2023-11-18T18:56:07;11.70;;;6.40;;
16837;SDS011;19510;54.486;9.046;2023-11-18T18:58:34;12.43;;;6.77;;
16837;SDS011;19510;54.486;9.046;2023-11-18T19:01:06;12.93;;;6.83;;
16837;SDS011;19510;54.486;9.046;2023-11-18T19:03:32;12.97;;;7.20;;
16837;SDS011;19510;54.486;9.046;2023-11-18T19:05:58;11.07;;;6.37;;
16837;SDS011;19510;54.486;9.046;2023-11-18T19:08:25;11.73;;;6.77;;
16837;SDS011;19510;54.486;9.046;2023-11-18T19:10:51;14.80;;;7.40;;
16837;SDS011;19510;54.486;9.046;2023-11-18T19:13:19;11.83;;;6.67;;
16837;SDS011;19510;54.486;9.046;2023-11-18T19:15:51;14.47;;;7.23;;
16837;SDS011;19510;54.486;9.046;2023-11-18T19:18:20;14.40;;;6.53;;
16837;SDS011;19510;54.486;9.046;2023-11-18T19:20:46;15.53;;;7.63;;
16837;SDS011;19510;54.486;9.046;2023-11-18T19:23:12;13.57;;;7.33;;
16837;SDS011;19510;54.486;9.046;2023-11-18T19:25:38;13.20;;;7.20;;
16837;SDS011;19510;54.486;9.046;2023-11-18T19:28:03;10.03;;;6.47;;
16837;SDS011;19510;54.486;9.046;2023-11-18T19:30:33;15.47;;;8.50;;
16837;SDS011;19510;54.486;9.046;2023-11-18T19:33:00;11.73;;;7.50;;
16837;SDS011;19510;54.486;9.046;2023-11-18T19:35:25;12.70;;;6.60;;
16837;SDS011;19510;54.486;9.046;2023-11-18T19:37:54;12.53;;;6.83;;
16837;SDS011;19510;54.486;9.046;2023-11-18T19:47:13;14.07;;;7.60;;
16837;SDS011;19510;54.486;9.046;2023-11-18T19:49:39;12.87;;;7.10;;
16837;SDS011;19510;54.486;9.046;2023-11-18T19:52:06;17.00;;;7.87;;
16837;SDS011;19510;54.486;9.046;2023-11-18T19:54:33;14.30;;;7.83;;
16837;SDS011;19510;54.486;9.046;2023-11-18T19:56:59;15.43;;;7.73;;
16837;SDS011;19510;54.486;9.046;2023-11-18T19:59:25;12.83;;;6.77;;
16837;SDS011;19510;54.486;9.046;2023-11-18T20:01:50;12.00;;;7.17;;
16837;SDS011;19510;54.486;9.046;2023-11-18T20:04:23;14.17;;;7.70;;
16837;SDS011;19510;54.486;9.046;2023-11-18T20:06:51;14.10;;;7.77;;
16837;SDS011;19510;54.486;9.046;2023-11-18T20:09:18;12.63;;;7.00;;
16837;SDS011;19510;54.486;9.046;2023-11-18T20:11:50;11.13;;;6.60;;
16837;SDS011;19510;54.486;9.046;2023-11-18T20:14:16;12.37;;;6.87;;
16837;SDS011;19510;54.486;9.046;2023-11-18T20:16:42;12.53;;;5.93;;
16837;SDS011;19510;54.486;9.046;2023-11-18T20:19:08;13.43;;;6.67;;
16837;SDS011;19510;54.486;9.046;2023-11-18T20:21:34;15.10;;;7.00;;
16837;SDS011;19510;54.486;9.046;2023-11-18T20:24:01;13.90;;;6.80;;
16837;SDS011;19510;54.486;9.046;2023-11-18T20:26:27;12.73;;;6.70;;
16837;SDS011;19510;54.486;9.046;2023-11-18T20:28:56;14.07;;;6.40;;
16837;SDS011;19510;54.486;9.046;2023-11-18T20:31:22;10.53;;;6.00;;
16837;SDS011;19510;54.486;9.046;2023-11-18T20:33:48;12.87;;;7.07;;
16837;SDS011;19510;54.486;9.046;2023-11-18T20:36:16;15.83;;;7.57;;
16837;SDS011;19510;54.486;9.046;2023-11-18T20:38:42;11.83;;;6.57;;
16837;SDS011;19510;54.486;9.046;2023-11-18T20:41:13;13.83;;;7.80;;
16837;SDS011;19510;54.486;9.046;2023-11-18T20:43:39;13.27;;;7.33;;
16837;SDS011;19510;54.486;9.046;2023-11-18T20:46:06;11.40;;;6.27;;
16837;SDS011;19510;54.486;9.046;2023-11-18T20:48:36;16.27;;;8.43;;
16837;SDS011;19510;54.486;9.046;2023-11-18T20:51:04;11.63;;;6.33;;
16837;SDS011;19510;54.486;9.046;2023-11-18T20:53:31;8.00;;;5.80;;
16837;SDS011;19510;54.486;9.046;2023-11-18T20:55:57;11.67;;;6.07;;
16837;SDS011;19510;54.486;9.046;2023-11-18T20:58:26;10.70;;;5.63;;
16837;SDS011;19510;54.486;9.046;2023-11-18T21:00:52;9.83;;;5.77;;
16837;SDS011;19510;54.486;9.046;2023-11-18T21:03:18;13.87;;;7.03;;
16837;SDS011;19510;54.486;9.046;2023-11-18T21:05:44;9.60;;;6.07;;
16837;SDS011;19510;54.486;9.046;2023-11-18T21:08:11;10.70;;;5.57;;
16837;SDS011;19510;54.486;9.046;2023-11-18T21:10:38;13.47;;;6.67;;
16837;SDS011;19510;54.486;9.046;2023-11-18T21:13:04;11.97;;;5.83;;
16837;SDS011;19510;54.486;9.046;2023-11-18T21:15:35;10.03;;;6.00;;
16837;SDS011;19510;54.486;9.046;2023-11-18T21:25:48;10.57;;;5.50;;
16837;SDS011;19510;54.486;9.046;2023-11-18T21:28:13;9.20;;;5.10;;
16837;SDS011;19510;54.486;9.046;2023-11-18T21:30:39;8.63;;;5.47;;
16837;SDS011;19510;54.486;9.046;2023-11-18T21:33:05;9.57;;;5.30;;
16837;SDS011;19510;54.486;9.046;2023-11-18T21:35:32;10.97;;;6.13;;
16837;SDS011;19510;54.486;9.046;2023-11-18T21:37:57;11.70;;;6.07;;
16837;SDS011;19510;54.486;9.046;2023-11-18T21:40:23;10.07;;;5.77;;
16837;SDS011;19510;54.486;9.046;2023-11-18T21:42:50;9.90;;;5.40;;
16837;SDS011;19510;54.486;9.046;2023-11-18T21:45:18;10.37;;;5.73;;
16837;SDS011;19510;54.486;9.046;2023-11-18T21:47:48;11.40;;;5.80;;
16837;SDS011;19510;54.486;9.046;2023-11-18T21:50:19;8.93;;;5.37;;
16837;SDS011;19510;54.486;9.046;2023-11-18T21:52:48;10.93;;;6.40;;
16837;SDS011;19510;54.486;9.046;2023-11-18T21:55:14;10.23;;;6.00;;
16837;SDS011;19510;54.486;9.046;2023-11-18T21:57:40;10.40;;;5.67;;
16837;SDS011;19510;54.486;9.046;2023-11-18T22:00:07;9.10;;;5.50;;
16837;SDS011;19510;54.486;9.046;2023-11-18T22:28:36;9.00;;;5.13;;
16837;SDS011;19510;54.486;9.046;2023-11-18T23:03:54;9.53;;;4.97;;
16837;SDS011;19510;54.486;9.046;2023-11-18T23:06:23;7.13;;;4.30;;
16837;SDS011;19510;54.486;9.046;2023-11-18T23:08:49;7.80;;;4.80;;
16837;SDS011;19510;54.486;9.046;2023-11-18T23:11:15;6.67;;;3.80;;
16837;SDS011;19510;54.486;9.046;2023-11-18T23:13:42;7.67;;;4.13;;
16837;SDS011;19510;54.486;9.046;2023-11-18T23:16:11;7.47;;;4.27;;
16837;SDS011;19510;54.486;9.046;2023-11-18T23:18:37;7.83;;;4.17;;
16837;SDS011;19510;54.486;9.046;2023-11-18T23:21:06;7.87;;;4.27;;
16837;SDS011;19510;54.486;9.046;2023-11-18T23:23:36;7.43;;;4.80;;
16837;SDS011;19510;54.486;9.046;2023-11-18T23:26:02;7.80;;;4.27;;
16837;SDS011;19510;54.486;9.046;2023-11-18T23:28:34;8.40;;;4.23;;
16837;SDS011;19510;54.486;9.046;2023-11-18T23:31:00;5.87;;;4.03;;
16837;SDS011;19510;54.486;9.046;2023-11-18T23:33:30;7.10;;;4.47;;
16837;SDS011;19510;54.486;9.046;2023-11-18T23:35:57;6.73;;;4.37;;
16837;SDS011;19510;54.486;9.046;2023-11-18T23:38:23;6.63;;;4.37;;
16837;SDS011;19510;54.486;9.046;2023-11-18T23:40:49;7.17;;;4.13;;
16837;SDS011;19510;54.486;9.046;2023-11-18T23:43:15;6.70;;;4.07;;
16837;SDS011;19510;54.486;9.046;2023-11-18T23:45:41;7.77;;;3.67;;
16837;SDS011;19510;54.486;9.046;2023-11-18T23:48:06;6.17;;;3.70;;
16837;SDS011;19510;54.486;9.046;2023-11-18T23:50:34;4.93;;;3.37;;
16837;SDS011;19510;54.486;9.046;2023-11-18T23:53:01;5.20;;;3.40;;
16837;SDS011;19510;54.486;9.046;2023-11-18T23:55:27;7.63;;;4.00;;
